Time;durP1;ratioP1;P1;durP2;ratioP2;P2;SDS_P1;SDS_P2;PMS_P1;PMS_P2;Temp;Humidity;BMP_temperature;BMP_pressure;BME280_temperature;BME280_humidity;BME280_pressure;Samples;Min_cycle;Max_cycle;Signal;HPM_P1;HPM_P2
2021/08/29 00:01:20;;;;;;;;;;;11.50;99.90;;;;;;8364323;28;19916;-68
2021/08/29 00:05:21;;;;;;;;;;;11.70;99.90;;;;;;8363755;28;19913;-67
2021/08/29 00:09:21;;;;;;;;;;;11.80;99.90;;;;;;8363657;28;19924;-68
2021/08/29 00:13:22;;;;;;;;;;;11.70;99.90;;;;;;8363714;28;19912;-68
2021/08/29 00:17:22;;;;;;;;;;;11.60;99.90;;;;;;8363246;28;19916;-67
2021/08/29 00:21:23;;;;;;;;;;;11.50;99.90;;;;;;8363393;28;19935;-67
2021/08/29 00:25:23;;;;;;;;;;;11.60;99.90;;;;;;8362978;28;20363;-68
2021/08/29 00:29:24;;;;;;;;;;;11.70;99.90;;;;;;8362901;28;19913;-67
2021/08/29 00:33:24;;;;;;;;;;;11.80;99.90;;;;;;8362746;28;20268;-68
2021/08/29 00:37:24;;;;;;;;;;;11.60;99.90;;;;;;8362807;28;19913;-68
2021/08/29 00:41:26;;;;;;;;;;;11.50;99.90;;;;;;8362005;28;19912;-68
2021/08/29 00:45:27;;;;;;;;;;;11.60;99.90;;;;;;8362432;28;19912;-68
2021/08/29 00:49:27;;;;;;;;;;;11.70;99.90;;;;;;8362553;28;19959;-68
2021/08/29 00:53:32;;;;;;;;;;;11.70;99.90;;;;;;8362202;28;19913;-67
2021/08/29 00:57:32;;;;;;;;;;;11.70;99.90;;;;;;8376939;28;19920;-68
2021/08/29 01:01:42;;;;;;;;;;;11.50;99.90;;;;;;8366957;28;19913;-67
2021/08/29 01:06:09;;;;;;;;;;;11.70;99.90;;;;;;8361636;28;19963;-67
2021/08/29 01:10:12;;;;;;;;;;;11.70;99.90;;;;;;8320732;28;19913;-68
2021/08/29 01:14:15;;;;;;;;;;;11.60;99.90;;;;;;8361465;28;20004;-68
2021/08/29 01:18:18;;;;;;;;;;;11.60;99.90;;;;;;8361416;28;19909;-68
2021/08/29 01:22:19;;;;;;;;;;;11.50;99.90;;;;;;8361261;28;20284;-68
2021/08/29 01:26:35;;;;;;;;;;;11.70;99.90;;;;;;8361051;28;19919;-67
2021/08/29 01:30:36;;;;;;;;;;;11.60;99.90;;;;;;8361126;28;19921;-68
2021/08/29 01:34:37;;;;;;;;;;;11.60;99.90;;;;;;8360684;28;19963;-69
2021/08/29 01:38:37;;;;;;;;;;;11.70;99.90;;;;;;8361006;28;19909;-68
2021/08/29 01:42:38;;;;;;;;;;;11.70;99.90;;;;;;8360921;28;19913;-68
2021/08/29 01:46:40;;;;;;;;;;;11.80;99.90;;;;;;8342553;28;19958;-68
2021/08/29 01:50:41;;;;;;;;;;;12.00;99.90;;;;;;8360626;28;20000;-67
2021/08/29 01:54:41;;;;;;;;;;;11.90;99.90;;;;;;8359308;28;19913;-67
2021/08/29 01:58:42;;;;;;;;;;;11.80;99.90;;;;;;8360503;28;19913;-67
2021/08/29 02:02:42;;;;;;;;;;;11.70;99.90;;;;;;8360464;28;19954;-67
2021/08/29 02:06:46;;;;;;;;;;;11.70;99.90;;;;;;8359833;28;19913;-68
2021/08/29 02:10:48;;;;;;;;;;;11.70;99.90;;;;;;8359835;28;20330;-68
2021/08/29 02:15:07;;;;;;;;;;;11.60;99.90;;;;;;8359580;28;19908;-68
2021/08/29 02:19:07;;;;;;;;;;;11.60;99.90;;;;;;8341879;28;19916;-68
2021/08/29 02:23:08;;;;;;;;;;;11.70;99.90;;;;;;8359940;28;19909;-68
2021/08/29 02:27:10;;;;;;;;;;;11.70;99.90;;;;;;8359368;28;19913;-68
2021/08/29 02:31:11;;;;;;;;;;;11.50;99.90;;;;;;8359679;28;20380;-67
2021/08/29 02:35:11;;;;;;;;;;;11.50;99.90;;;;;;8360191;28;19915;-67
2021/08/29 02:39:13;;;;;;;;;;;11.70;99.90;;;;;;8358834;28;19913;-68
2021/08/29 02:43:14;;;;;;;;;;;11.70;99.90;;;;;;8359713;28;19909;-68
2021/08/29 02:47:15;;;;;;;;;;;11.70;99.90;;;;;;8359170;28;19920;-67
2021/08/29 02:51:16;;;;;;;;;;;11.70;99.90;;;;;;8359377;28;19909;-68
2021/08/29 02:55:18;;;;;;;;;;;11.80;99.90;;;;;;8341697;28;19909;-68
2021/08/29 02:59:19;;;;;;;;;;;11.80;99.90;;;;;;8341344;28;19909;-68
2021/08/29 03:03:19;;;;;;;;;;;11.80;99.90;;;;;;8359447;28;20462;-68
2021/08/29 03:07:20;;;;;;;;;;;11.80;99.90;;;;;;8363789;28;19912;-67
2021/08/29 03:11:20;;;;;;;;;;;11.70;99.90;;;;;;8365557;28;19909;-68
2021/08/29 03:15:21;;;;;;;;;;;11.60;99.90;;;;;;8371624;28;19912;-68
2021/08/29 03:19:21;;;;;;;;;;;11.70;99.90;;;;;;8366791;28;19909;-68
2021/08/29 03:23:22;;;;;;;;;;;11.50;99.90;;;;;;8351603;28;20446;-68
2021/08/29 03:27:23;;;;;;;;;;;11.60;99.90;;;;;;8389989;28;19916;-66
2021/08/29 03:31:23;;;;;;;;;;;11.70;99.90;;;;;;8406288;23;19959;-65
2021/08/29 03:35:25;;;;;;;;;;;11.50;99.90;;;;;;8397497;28;19908;-65
2021/08/29 03:39:26;;;;;;;;;;;11.50;99.90;;;;;;8397601;28;19919;-65
2021/08/29 03:43:27;;;;;;;;;;;11.50;99.90;;;;;;8397155;28;19912;-66
2021/08/29 03:47:27;;;;;;;;;;;11.30;99.90;;;;;;8381397;28;19923;-65
2021/08/29 03:51:28;;;;;;;;;;;11.30;99.90;;;;;;8364266;28;20455;-65
2021/08/29 03:55:29;;;;;;;;;;;11.30;99.90;;;;;;8345927;28;19954;-65
2021/08/29 03:59:30;;;;;;;;;;;11.30;99.90;;;;;;8364114;28;19909;-65
2021/08/29 04:03:30;;;;;;;;;;;11.30;99.90;;;;;;8364257;28;19917;-65
2021/08/29 04:07:32;;;;;;;;;;;11.30;99.90;;;;;;8363425;28;19917;-65
2021/08/29 04:11:33;;;;;;;;;;;11.20;99.90;;;;;;8363812;28;20300;-65
2021/08/29 04:15:36;;;;;;;;;;;11.30;99.90;;;;;;8363533;28;19908;-65
2021/08/29 04:19:40;;;;;;;;;;;11.20;99.90;;;;;;8361667;28;19916;-65
2021/08/29 04:23:41;;;;;;;;;;;11.30;99.90;;;;;;8380250;28;19947;-65
2021/08/29 04:27:41;;;;;;;;;;;11.40;99.90;;;;;;8396379;28;19912;-64
2021/08/29 04:31:51;;;;;;;;;;;11.50;99.90;;;;;;8396056;28;19956;-64
2021/08/29 04:35:54;;;;;;;;;;;11.40;99.90;;;;;;8395859;28;19951;-64
2021/08/29 04:39:55;;;;;;;;;;;11.50;99.90;;;;;;8395972;28;19909;-65
2021/08/29 04:43:55;;;;;;;;;;;11.40;99.90;;;;;;8395967;28;20010;-65
2021/08/29 04:47:56;;;;;;;;;;;11.20;99.90;;;;;;8375688;28;19920;-64
2021/08/29 04:51:56;;;;;;;;;;;11.40;99.90;;;;;;8362341;28;19991;-65
2021/08/29 04:55:57;;;;;;;;;;;11.40;99.90;;;;;;8361793;28;19916;-65
2021/08/29 04:59:57;;;;;;;;;;;11.50;99.90;;;;;;8362344;28;19908;-64
2021/08/29 05:03:58;;;;;;;;;;;11.50;99.90;;;;;;8344272;28;19912;-65
2021/08/29 05:07:58;;;;;;;;;;;11.50;99.90;;;;;;8389906;28;20007;-65
2021/08/29 05:11:59;;;;;;;;;;;11.50;99.90;;;;;;8394976;28;19916;-65
2021/08/29 05:15:59;;;;;;;;;;;11.60;99.90;;;;;;8390946;28;19919;-65
2021/08/29 05:20:00;;;;;;;;;;;11.60;99.90;;;;;;8361314;28;20281;-65
2021/08/29 05:24:00;;;;;;;;;;;11.80;99.90;;;;;;8361136;28;20404;-65
2021/08/29 05:28:01;;;;;;;;;;;11.70;99.90;;;;;;8361103;28;19924;-65
2021/08/29 05:32:01;;;;;;;;;;;11.70;99.90;;;;;;8361202;28;19921;-64
2021/08/29 05:36:02;;;;;;;;;;;11.80;99.90;;;;;;8360892;28;20008;-65
2021/08/29 05:40:03;;;;;;;;;;;11.80;99.90;;;;;;8343016;28;20368;-64
2021/08/29 05:44:03;;;;;;;;;;;11.90;99.90;;;;;;8360966;28;19908;-65
2021/08/29 05:48:04;;;;;;;;;;;11.90;99.90;;;;;;8360751;28;20434;-64
2021/08/29 05:52:05;;;;;;;;;;;12.00;99.90;;;;;;8360917;28;20335;-65
2021/08/29 05:56:05;;;;;;;;;;;12.00;99.90;;;;;;8359915;28;19920;-65
2021/08/29 06:00:06;;;;;;;;;;;11.80;99.90;;;;;;8360806;28;19924;-65
2021/08/29 06:04:06;;;;;;;;;;;11.90;99.90;;;;;;8360694;28;19979;-64
2021/08/29 06:08:07;;;;;;;;;;;11.80;99.90;;;;;;8360286;28;20292;-64
2021/08/29 06:12:07;;;;;;;;;;;11.80;99.90;;;;;;8342294;28;20039;-64
2021/08/29 06:16:08;;;;;;;;;;;11.90;99.90;;;;;;8359875;28;19915;-64
2021/08/29 06:20:09;;;;;;;;;;;11.90;99.90;;;;;;8360018;28;19913;-64
2021/08/29 06:24:09;;;;;;;;;;;12.10;99.90;;;;;;8359551;28;19920;-64
2021/08/29 06:28:10;;;;;;;;;;;12.20;99.90;;;;;;8359725;28;19913;-65
2021/08/29 06:32:10;;;;;;;;;;;12.20;99.90;;;;;;8359440;28;20046;-65
2021/08/29 06:36:10;;;;;;;;;;;12.20;99.90;;;;;;8359364;28;19995;-64
2021/08/29 06:40:12;;;;;;;;;;;12.20;99.90;;;;;;8359083;28;19916;-64
2021/08/29 06:44:12;;;;;;;;;;;12.40;99.90;;;;;;8359408;28;19955;-65
2021/08/29 06:48:13;;;;;;;;;;;12.30;99.90;;;;;;8359139;28;19913;-64
2021/08/29 06:52:13;;;;;;;;;;;12.40;99.90;;;;;;8359249;28;20372;-64
2021/08/29 06:56:13;;;;;;;;;;;12.40;99.90;;;;;;8363808;28;20402;-64
2021/08/29 07:00:14;;;;;;;;;;;12.40;99.90;;;;;;8356836;28;19955;-64
2021/08/29 07:04:14;;;;;;;;;;;12.50;99.90;;;;;;8374813;28;19912;-64
2021/08/29 07:08:15;;;;;;;;;;;12.60;99.90;;;;;;8374825;28;19928;-65
2021/08/29 07:12:15;;;;;;;;;;;12.50;99.90;;;;;;8374712;28;19962;-64
2021/08/29 07:16:16;;;;;;;;;;;12.50;99.90;;;;;;8371586;28;19916;-64
2021/08/29 07:20:17;;;;;;;;;;;12.60;99.90;;;;;;8388512;28;19915;-64
2021/08/29 07:24:17;;;;;;;;;;;12.70;99.90;;;;;;8403204;28;19912;-64
2021/08/29 07:28:17;;;;;;;;;;;12.80;99.90;;;;;;8420860;28;19970;-64
2021/08/29 07:32:18;;;;;;;;;;;12.90;99.90;;;;;;8420665;28;19920;-64
2021/08/29 07:36:18;;;;;;;;;;;12.80;99.90;;;;;;8395623;28;19966;-64
2021/08/29 07:40:19;;;;;;;;;;;12.80;99.90;;;;;;8387589;28;19908;-64
2021/08/29 07:44:20;;;;;;;;;;;12.80;99.90;;;;;;8370174;28;19912;-64
2021/08/29 07:48:21;;;;;;;;;;;12.90;99.90;;;;;;8364665;28;20347;-64
2021/08/29 07:52:21;;;;;;;;;;;13.00;99.90;;;;;;8355901;28;19917;-64
2021/08/29 07:56:22;;;;;;;;;;;12.90;99.90;;;;;;8360216;28;20009;-64
2021/08/29 08:00:22;;;;;;;;;;;13.00;99.90;;;;;;8360285;28;20039;-64
2021/08/29 08:04:22;;;;;;;;;;;13.00;99.90;;;;;;8362361;28;19913;-64
2021/08/29 08:08:23;;;;;;;;;;;12.90;99.90;;;;;;8360219;28;19941;-65
2021/08/29 08:12:23;;;;;;;;;;;13.00;99.90;;;;;;8413093;28;19974;-65
2021/08/29 08:16:24;;;;;;;;;;;13.10;99.90;;;;;;8390960;28;19917;-64
2021/08/29 08:20:24;;;;;;;;;;;13.40;99.90;;;;;;8359618;28;19913;-64
2021/08/29 08:24:25;;;;;;;;;;;13.40;99.90;;;;;;8363510;28;19972;-64
2021/08/29 08:28:25;;;;;;;;;;;13.40;99.90;;;;;;8376814;28;19927;-64
2021/08/29 08:32:26;;;;;;;;;;;13.90;99.90;;;;;;8395507;28;19927;-64
2021/08/29 08:36:27;;;;;;;;;;;14.00;99.90;;;;;;8379346;28;20399;-64
2021/08/29 08:40:32;;;;;;;;;;;13.90;99.90;;;;;;8381729;28;19920;-64
2021/08/29 08:44:33;;;;;;;;;;;14.20;99.90;;;;;;8391705;28;19920;-64
2021/08/29 08:48:33;;;;;;;;;;;14.50;99.90;;;;;;8376551;28;19923;-64
2021/08/29 08:52:35;;;;;;;;;;;14.60;99.90;;;;;;8361452;28;20380;-64
2021/08/29 08:56:36;;;;;;;;;;;14.60;99.90;;;;;;8375263;28;19916;-64
2021/08/29 09:00:36;;;;;;;;;;;14.60;99.90;;;;;;8377321;28;19917;-65
2021/08/29 09:04:37;;;;;;;;;;;14.50;99.90;;;;;;8375545;28;20003;-65
2021/08/29 09:08:38;;;;;;;;;;;14.60;99.90;;;;;;8392335;28;20422;-65
2021/08/29 09:12:56;;;;;;;;;;;14.70;99.90;;;;;;8376747;28;19913;-64
2021/08/29 09:16:57;;;;;;;;;;;15.00;99.90;;;;;;8355137;28;19913;-64
2021/08/29 09:21:05;;;;;;;;;;;15.50;99.90;;;;;;8350681;28;19919;-65
2021/08/29 09:25:10;;;;;;;;;;;15.90;99.90;;;;;;8377555;28;19944;-64
2021/08/29 09:29:20;;;;;;;;;;;15.70;99.90;;;;;;8375881;28;19913;-65
2021/08/29 09:33:21;;;;;;;;;;;15.40;99.90;;;;;;8364802;28;19963;-65
2021/08/29 09:37:22;;;;;;;;;;;15.30;99.90;;;;;;8369521;28;20445;-65
2021/08/29 09:41:24;;;;;;;;;;;15.60;99.90;;;;;;8375940;28;19920;-64
2021/08/29 09:45:53;;;;;;;;;;;16.10;99.90;;;;;;8351877;28;19919;-65
2021/08/29 09:49:58;;;;;;;;;;;16.50;99.90;;;;;;8340704;28;19913;-65
2021/08/29 09:53:59;;;;;;;;;;;16.30;99.90;;;;;;8357364;28;19963;-65
2021/08/29 09:58:00;;;;;;;;;;;16.30;99.90;;;;;;8342152;28;19935;-65
2021/08/29 10:02:00;;;;;;;;;;;16.40;99.90;;;;;;8359980;28;19916;-65
2021/08/29 10:06:20;;;;;;;;;;;16.10;99.90;;;;;;8360065;28;19909;-65
2021/08/29 10:10:21;;;;;;;;;;;15.90;99.90;;;;;;8360147;28;19912;-65
2021/08/29 10:14:22;;;;;;;;;;;15.70;99.90;;;;;;8359187;28;19912;-65
2021/08/29 10:18:22;;;;;;;;;;;15.70;99.90;;;;;;8342063;28;20003;-65
2021/08/29 10:22:23;;;;;;;;;;;15.90;99.90;;;;;;8359951;28;19909;-66
2021/08/29 10:26:24;;;;;;;;;;;15.80;99.90;;;;;;8359476;28;19912;-65
2021/08/29 10:30:26;;;;;;;;;;;15.70;99.90;;;;;;8359531;28;19923;-65
2021/08/29 10:34:27;;;;;;;;;;;15.60;99.90;;;;;;8359436;28;19999;-65
2021/08/29 10:38:27;;;;;;;;;;;16.10;99.90;;;;;;8359678;28;19909;-65
2021/08/29 10:42:28;;;;;;;;;;;16.10;99.90;;;;;;8359346;28;19915;-65
2021/08/29 10:46:30;;;;;;;;;;;16.20;99.90;;;;;;8359072;28;20016;-65
2021/08/29 10:50:31;;;;;;;;;;;16.40;99.90;;;;;;8359361;28;19909;-65
2021/08/29 10:54:31;;;;;;;;;;;16.30;99.90;;;;;;8359258;28;19908;-66
2021/08/29 10:58:32;;;;;;;;;;;16.40;99.90;;;;;;8341128;28;20357;-65
2021/08/29 11:02:37;;;;;;;;;;;16.30;99.90;;;;;;8358944;28;19915;-65
2021/08/29 11:06:44;;;;;;;;;;;16.30;99.90;;;;;;8358946;28;19947;-65
2021/08/29 11:10:45;;;;;;;;;;;15.90;99.90;;;;;;8359056;28;20381;-65
2021/08/29 11:14:48;;;;;;;;;;;15.50;99.90;;;;;;8341019;28;19913;-65
2021/08/29 11:19:07;;;;;;;;;;;15.40;99.90;;;;;;8359254;28;19913;-65
2021/08/29 11:23:07;;;;;;;;;;;15.50;99.90;;;;;;8359025;28;19909;-65
2021/08/29 11:27:28;;;;;;;;;;;15.90;99.90;;;;;;8361678;28;19935;-65
2021/08/29 11:31:48;;;;;;;;;;;16.00;99.90;;;;;;8365348;28;19924;-65
2021/08/29 11:35:50;;;;;;;;;;;16.00;99.90;;;;;;8364592;28;19915;-65
2021/08/29 11:40:00;;;;;;;;;;;16.00;99.90;;;;;;8347254;28;19913;-65
2021/08/29 11:44:01;;;;;;;;;;;16.10;99.90;;;;;;8365193;28;19909;-65
2021/08/29 11:48:01;;;;;;;;;;;16.20;99.90;;;;;;8364447;28;19913;-65
2021/08/29 11:52:02;;;;;;;;;;;16.50;99.90;;;;;;8364480;28;19909;-65
2021/08/29 11:56:05;;;;;;;;;;;17.00;99.90;;;;;;8364211;28;19909;-65
2021/08/29 12:00:07;;;;;;;;;;;17.90;99.90;;;;;;8345623;28;20296;-65
2021/08/29 12:04:07;;;;;;;;;;;18.00;99.90;;;;;;8364338;28;19954;-65
2021/08/29 12:08:10;;;;;;;;;;;18.50;99.90;;;;;;8363745;28;19917;-65
2021/08/29 12:12:15;;;;;;;;;;;19.10;99.90;;;;;;8363736;28;19915;-65
2021/08/29 12:16:15;;;;;;;;;;;18.90;99.90;;;;;;8381174;28;20398;-65
2021/08/29 12:20:16;;;;;;;;;;;18.00;99.90;;;;;;8356102;28;19962;-65
2021/08/29 12:24:27;;;;;;;;;;;17.80;99.90;;;;;;8361266;28;19912;-65
2021/08/29 12:28:28;;;;;;;;;;;17.00;99.90;;;;;;8393147;28;19920;-64
2021/08/29 12:32:32;;;;;;;;;;;16.50;99.90;;;;;;8378856;28;19931;-64
2021/08/29 12:36:36;;;;;;;;;;;16.60;99.90;;;;;;8382954;28;19912;-64
2021/08/29 12:40:39;;;;;;;;;;;17.20;99.90;;;;;;8370446;28;19921;-64
2021/08/29 12:44:40;;;;;;;;;;;17.40;99.90;;;;;;8391996;28;19927;-64
2021/08/29 12:48:40;;;;;;;;;;;17.50;99.90;;;;;;8388017;28;19921;-64
2021/08/29 12:52:45;;;;;;;;;;;17.50;99.90;;;;;;8360398;28;19920;-65
2021/08/29 12:56:50;;;;;;;;;;;17.50;99.90;;;;;;8337528;28;19916;-64
2021/08/29 13:00:55;;;;;;;;;;;17.70;99.90;;;;;;8357621;28;19949;-64
2021/08/29 13:04:57;;;;;;;;;;;17.80;99.90;;;;;;8351498;28;20004;-65
2021/08/29 13:09:06;;;;;;;;;;;18.30;99.90;;;;;;8354495;28;19951;-65
2021/08/29 13:13:07;;;;;;;;;;;18.30;99.90;;;;;;8367632;28;19917;-65
2021/08/29 13:17:18;;;;;;;;;;;18.50;99.90;;;;;;8367131;28;19944;-65
2021/08/29 13:21:22;;;;;;;;;;;18.20;99.90;;;;;;8356616;28;19917;-64
2021/08/29 13:25:28;;;;;;;;;;;18.00;99.90;;;;;;8378364;28;19913;-64
2021/08/29 13:29:40;;;;;;;;;;;17.90;99.90;;;;;;8357118;28;19960;-65
2021/08/29 13:33:41;;;;;;;;;;;18.00;99.90;;;;;;8357018;28;19920;-64
2021/08/29 13:37:49;;;;;;;;;;;18.20;99.90;;;;;;8353380;28;19955;-65
2021/08/29 13:42:05;;;;;;;;;;;18.00;99.90;;;;;;8351871;28;19912;-65
2021/08/29 13:46:07;;;;;;;;;;;17.60;99.90;;;;;;8363569;28;19916;-64
2021/08/29 13:50:08;;;;;;;;;;;17.40;99.90;;;;;;8362431;28;19983;-64
2021/08/29 13:54:08;;;;;;;;;;;17.10;99.90;;;;;;8356862;28;20265;-64
2021/08/29 13:58:09;;;;;;;;;;;17.00;99.90;;;;;;8353741;28;20043;-63
2021/08/29 14:02:09;;;;;;;;;;;16.70;99.90;;;;;;8353916;28;19952;-64
2021/08/29 14:06:10;;;;;;;;;;;16.50;99.90;;;;;;8352450;28;21258;-64
2021/08/29 14:10:11;;;;;;;;;;;16.20;99.90;;;;;;8361335;28;19916;-65
2021/08/29 14:14:12;;;;;;;;;;;16.00;99.90;;;;;;8364803;28;19924;-63
2021/08/29 14:18:12;;;;;;;;;;;15.90;99.90;;;;;;8353306;28;19958;-63
2021/08/29 14:22:13;;;;;;;;;;;15.60;99.90;;;;;;8385989;28;19912;-63
2021/08/29 14:26:13;;;;;;;;;;;15.30;99.90;;;;;;8388022;28;19967;-63
2021/08/29 14:30:14;;;;;;;;;;;15.40;99.90;;;;;;8361501;28;20278;-63
2021/08/29 14:34:14;;;;;;;;;;;15.40;99.90;;;;;;8352991;28;20285;-64
2021/08/29 14:38:15;;;;;;;;;;;15.30;99.90;;;;;;8358272;28;19939;-63
2021/08/29 14:42:17;;;;;;;;;;;15.30;99.90;;;;;;8339558;28;20199;-64
2021/08/29 14:46:17;;;;;;;;;;;15.50;99.90;;;;;;8353888;28;19909;-62
2021/08/29 14:50:18;;;;;;;;;;;15.60;99.90;;;;;;8354330;28;19920;-63
2021/08/29 14:54:19;;;;;;;;;;;15.60;99.90;;;;;;8353833;28;19917;-63
2021/08/29 14:58:19;;;;;;;;;;;15.40;99.90;;;;;;8353615;28;20342;-62
2021/08/29 15:02:19;;;;;;;;;;;15.50;99.90;;;;;;8368689;28;19916;-63
2021/08/29 15:06:20;;;;;;;;;;;15.50;99.90;;;;;;8373014;28;20066;-63
2021/08/29 15:10:21;;;;;;;;;;;15.40;99.90;;;;;;8366636;28;19955;-63
2021/08/29 15:14:22;;;;;;;;;;;15.40;99.90;;;;;;8377978;28;20782;-63
2021/08/29 15:18:26;;;;;;;;;;;15.40;99.90;;;;;;8376087;28;19916;-62
2021/08/29 15:22:27;;;;;;;;;;;15.00;99.90;;;;;;8377357;28;19920;-62
2021/08/29 15:26:27;;;;;;;;;;;14.90;99.90;;;;;;8377200;28;19924;-63
2021/08/29 15:30:28;;;;;;;;;;;15.00;99.90;;;;;;8376890;28;19964;-63
2021/08/29 15:34:28;;;;;;;;;;;14.80;99.90;;;;;;8378736;28;20563;-63
2021/08/29 15:38:31;;;;;;;;;;;14.70;99.90;;;;;;8375853;28;20660;-62
2021/08/29 15:42:32;;;;;;;;;;;14.80;99.90;;;;;;8380818;28;19916;-62
2021/08/29 15:46:32;;;;;;;;;;;14.80;99.90;;;;;;8367732;28;19916;-63
2021/08/29 15:50:33;;;;;;;;;;;14.80;99.90;;;;;;8367905;28;19934;-63
2021/08/29 15:54:34;;;;;;;;;;;14.80;99.90;;;;;;8371099;28;19923;-63
2021/08/29 15:58:34;;;;;;;;;;;14.90;99.90;;;;;;8368614;28;19920;-63
2021/08/29 16:02:35;;;;;;;;;;;15.00;99.90;;;;;;8377240;28;19917;-69
2021/08/29 16:06:35;;;;;;;;;;;15.00;99.90;;;;;;8367100;28;19961;-69
2021/08/29 16:10:36;;;;;;;;;;;14.80;99.90;;;;;;8368319;28;19913;-69
2021/08/29 16:14:37;;;;;;;;;;;14.90;99.90;;;;;;8359430;28;19913;-69
2021/08/29 16:18:37;;;;;;;;;;;14.90;99.90;;;;;;8347705;28;20273;-71
2021/08/29 16:22:38;;;;;;;;;;;15.00;99.90;;;;;;8364011;28;19920;-69
2021/08/29 16:26:38;;;;;;;;;;;15.00;99.90;;;;;;8375111;28;19974;-69
2021/08/29 16:30:39;;;;;;;;;;;15.00;99.90;;;;;;8376542;28;19977;-70
2021/08/29 16:34:39;;;;;;;;;;;15.00;99.90;;;;;;8373823;28;19909;-69
2021/08/29 16:38:40;;;;;;;;;;;14.80;99.90;;;;;;8375134;28;19919;-71
2021/08/29 16:42:40;;;;;;;;;;;14.80;99.90;;;;;;8374340;28;19916;-70
2021/08/29 16:46:42;;;;;;;;;;;14.80;99.90;;;;;;8370794;28;19921;-63
2021/08/29 16:50:43;;;;;;;;;;;14.90;99.90;;;;;;8345560;28;19913;-63
2021/08/29 16:54:43;;;;;;;;;;;14.80;99.90;;;;;;8359587;28;19920;-63
2021/08/29 16:58:44;;;;;;;;;;;14.70;99.90;;;;;;8356037;28;20364;-62
2021/08/29 17:02:44;;;;;;;;;;;14.50;99.90;;;;;;8367861;28;19908;-63
2021/08/29 17:06:45;;;;;;;;;;;14.50;99.90;;;;;;8389609;28;19917;-63
2021/08/29 17:10:46;;;;;;;;;;;14.50;99.90;;;;;;8374551;28;19935;-63
2021/08/29 17:14:47;;;;;;;;;;;14.40;99.90;;;;;;8338761;28;19912;-63
2021/08/29 17:18:47;;;;;;;;;;;14.40;99.90;;;;;;8375919;28;20360;-63
2021/08/29 17:22:48;;;;;;;;;;;14.30;99.90;;;;;;8376210;28;20003;-63
2021/08/29 17:26:48;;;;;;;;;;;14.40;99.90;;;;;;8373944;28;19920;-62
2021/08/29 17:30:49;;;;;;;;;;;14.30;99.90;;;;;;8373846;28;19921;-62
2021/08/29 17:34:49;;;;;;;;;;;14.20;99.90;;;;;;8364445;28;20015;-62
2021/08/29 17:38:50;;;;;;;;;;;14.10;99.90;;;;;;8374780;28;19917;-62
2021/08/29 17:42:50;;;;;;;;;;;14.10;99.90;;;;;;8376356;28;19913;-62
2021/08/29 17:46:51;;;;;;;;;;;14.00;99.90;;;;;;8338160;28;19917;-63
2021/08/29 17:50:53;;;;;;;;;;;14.10;99.90;;;;;;8353768;28;19923;-62
2021/08/29 17:54:53;;;;;;;;;;;14.00;99.90;;;;;;8373931;28;19966;-62
2021/08/29 17:58:54;;;;;;;;;;;13.90;99.90;;;;;;8371607;28;19913;-62
2021/08/29 18:02:54;;;;;;;;;;;13.80;99.90;;;;;;8356039;28;19949;-62
2021/08/29 18:06:55;;;;;;;;;;;13.80;99.90;;;;;;8354062;28;20019;-62
2021/08/29 18:10:56;;;;;;;;;;;13.70;99.90;;;;;;8368781;28;20329;-64
2021/08/29 18:14:56;;;;;;;;;;;13.70;99.90;;;;;;8345181;28;19917;-64
2021/08/29 18:18:57;;;;;;;;;;;13.70;99.90;;;;;;8374477;28;19928;-64
2021/08/29 18:22:57;;;;;;;;;;;13.70;99.90;;;;;;8356060;28;19924;-64
2021/08/29 18:26:58;;;;;;;;;;;13.70;99.90;;;;;;8341785;28;19921;-64
2021/08/29 18:30:59;;;;;;;;;;;13.60;99.90;;;;;;8353250;28;19920;-64
2021/08/29 18:34:59;;;;;;;;;;;13.60;99.90;;;;;;8338204;28;19916;-64
2021/08/29 18:39:00;;;;;;;;;;;13.60;99.90;;;;;;8352573;28;20285;-64
2021/08/29 18:43:00;;;;;;;;;;;13.70;99.90;;;;;;8355501;28;19979;-63
2021/08/29 18:47:01;;;;;;;;;;;13.60;99.90;;;;;;8354832;28;19956;-64
2021/08/29 18:51:01;;;;;;;;;;;13.50;99.90;;;;;;8353192;28;19924;-63
2021/08/29 18:55:02;;;;;;;;;;;13.50;99.90;;;;;;8352489;28;20508;-64
2021/08/29 18:59:04;;;;;;;;;;;13.60;99.90;;;;;;8352733;28;19917;-64
2021/08/29 19:03:04;;;;;;;;;;;13.60;99.90;;;;;;8352481;28;19917;-64
2021/08/29 19:07:06;;;;;;;;;;;13.50;99.90;;;;;;8352891;28;20455;-64
2021/08/29 19:11:07;;;;;;;;;;;13.50;99.90;;;;;;8352722;28;19917;-64
2021/08/29 19:15:08;;;;;;;;;;;13.50;99.90;;;;;;8352242;28;20441;-64
2021/08/29 19:19:08;;;;;;;;;;;13.50;99.90;;;;;;8357875;28;19960;-64
2021/08/29 19:23:09;;;;;;;;;;;13.50;99.90;;;;;;8351879;28;19963;-64
2021/08/29 19:27:10;;;;;;;;;;;13.50;99.90;;;;;;8351779;28;19923;-63
2021/08/29 19:31:11;;;;;;;;;;;13.50;99.90;;;;;;8353193;28;19978;-64
2021/08/29 19:35:12;;;;;;;;;;;13.50;99.90;;;;;;8352574;28;20704;-64
2021/08/29 19:39:12;;;;;;;;;;;13.40;99.90;;;;;;8336033;28;19924;-63
2021/08/29 19:43:13;;;;;;;;;;;13.40;99.90;;;;;;8362463;28;19951;-64
2021/08/29 19:47:13;;;;;;;;;;;13.40;99.90;;;;;;8354817;28;19928;-64
2021/08/29 19:51:14;;;;;;;;;;;13.50;99.90;;;;;;8341432;28;19928;-64
2021/08/29 19:55:14;;;;;;;;;;;13.40;99.90;;;;;;8361035;28;19916;-64
2021/08/29 19:59:15;;;;;;;;;;;13.40;99.90;;;;;;8360661;28;19920;-64
2021/08/29 20:03:15;;;;;;;;;;;13.50;99.90;;;;;;8366803;28;20008;-63
2021/08/29 20:07:18;;;;;;;;;;;13.30;99.90;;;;;;8379250;28;19942;-64
2021/08/29 20:11:19;;;;;;;;;;;13.40;99.90;;;;;;8371496;28;19931;-63
2021/08/29 20:15:25;;;;;;;;;;;13.30;99.90;;;;;;8372125;28;20519;-63
2021/08/29 20:19:25;;;;;;;;;;;13.40;99.90;;;;;;8379430;28;19938;-63
2021/08/29 20:23:26;;;;;;;;;;;13.40;99.90;;;;;;8349892;28;19909;-64
2021/08/29 20:27:26;;;;;;;;;;;13.40;99.90;;;;;;8362716;28;20381;-63
2021/08/29 20:31:26;;;;;;;;;;;13.40;99.90;;;;;;8363162;28;19917;-64
2021/08/29 20:35:27;;;;;;;;;;;13.30;99.90;;;;;;8363129;28;20403;-64
2021/08/29 20:39:27;;;;;;;;;;;13.30;99.90;;;;;;8363480;28;19919;-64
2021/08/29 20:43:28;;;;;;;;;;;13.20;99.90;;;;;;8366788;28;20303;-64
2021/08/29 20:47:28;;;;;;;;;;;13.20;99.90;;;;;;8380777;28;20000;-64
2021/08/29 20:51:29;;;;;;;;;;;13.30;99.90;;;;;;8362676;28;19915;-63
2021/08/29 20:55:29;;;;;;;;;;;13.50;99.90;;;;;;8362727;28;19920;-63
2021/08/29 20:59:30;;;;;;;;;;;13.30;99.90;;;;;;8362381;28;19909;-64
2021/08/29 21:03:30;;;;;;;;;;;13.40;99.90;;;;;;8365489;28;19908;-63
2021/08/29 21:07:31;;;;;;;;;;;13.30;99.90;;;;;;8388559;28;19913;-63
2021/08/29 21:11:31;;;;;;;;;;;13.30;99.90;;;;;;8369408;28;20293;-64
2021/08/29 21:15:34;;;;;;;;;;;13.30;99.90;;;;;;8383591;28;19916;-63
2021/08/29 21:19:38;;;;;;;;;;;13.30;99.90;;;;;;8362104;28;20284;-63
2021/08/29 21:23:38;;;;;;;;;;;13.20;99.90;;;;;;8361716;28;19928;-64
2021/08/29 21:27:39;;;;;;;;;;;13.30;99.90;;;;;;8370650;28;19924;-64
2021/08/29 21:31:39;;;;;;;;;;;13.20;99.90;;;;;;8361247;28;19939;-64
2021/08/29 21:35:39;;;;;;;;;;;13.30;99.90;;;;;;8343356;28;20588;-63
2021/08/29 21:39:40;;;;;;;;;;;13.40;99.90;;;;;;8361370;28;20331;-64
2021/08/29 21:43:40;;;;;;;;;;;13.50;99.90;;;;;;8361063;28;20003;-64
2021/08/29 21:47:41;;;;;;;;;;;13.40;99.90;;;;;;8360553;28;20011;-64
2021/08/29 21:51:42;;;;;;;;;;;13.30;99.90;;;;;;8360812;28;20323;-63
2021/08/29 21:55:42;;;;;;;;;;;13.40;99.90;;;;;;8360400;28;19912;-63
2021/08/29 21:59:43;;;;;;;;;;;13.30;99.90;;;;;;8360783;28;20361;-64
2021/08/29 22:03:43;;;;;;;;;;;13.30;99.90;;;;;;8360258;28;20003;-64
2021/08/29 22:07:45;;;;;;;;;;;13.40;99.90;;;;;;8359728;28;19923;-63
2021/08/29 22:11:45;;;;;;;;;;;13.40;99.90;;;;;;8358766;28;19909;-63
2021/08/29 22:15:46;;;;;;;;;;;13.40;99.90;;;;;;8359969;28;19909;-63
2021/08/29 22:19:46;;;;;;;;;;;13.40;99.90;;;;;;8359971;28;19909;-64
2021/08/29 22:23:47;;;;;;;;;;;13.30;99.90;;;;;;8359984;28;19913;-64
2021/08/29 22:27:47;;;;;;;;;;;13.40;99.90;;;;;;8359449;28;19952;-64
2021/08/29 22:31:48;;;;;;;;;;;13.30;99.90;;;;;;8359704;28;20394;-64
2021/08/29 22:35:48;;;;;;;;;;;13.20;99.90;;;;;;8359420;28;20379;-63
2021/08/29 22:39:49;;;;;;;;;;;13.30;99.90;;;;;;8359734;28;19909;-63
2021/08/29 22:43:49;;;;;;;;;;;13.60;99.90;;;;;;8359592;28;19909;-63
2021/08/29 22:47:49;;;;;;;;;;;13.60;99.90;;;;;;8359676;28;19920;-64
2021/08/29 22:51:50;;;;;;;;;;;13.50;99.90;;;;;;8359403;28;19916;-63
2021/08/29 22:55:50;;;;;;;;;;;13.40;99.90;;;;;;8359172;28;19909;-64
2021/08/29 22:59:51;;;;;;;;;;;13.30;99.90;;;;;;8359528;28;19909;-64
2021/08/29 23:03:51;;;;;;;;;;;13.40;99.90;;;;;;8341127;28;19932;-64
2021/08/29 23:07:52;;;;;;;;;;;13.30;99.90;;;;;;8358764;28;19913;-64
2021/08/29 23:11:52;;;;;;;;;;;13.30;99.90;;;;;;8358752;28;19916;-64
2021/08/29 23:15:53;;;;;;;;;;;13.20;99.90;;;;;;8358819;28;19909;-64
2021/08/29 23:19:53;;;;;;;;;;;13.40;99.90;;;;;;8359164;28;19909;-63
2021/08/29 23:23:53;;;;;;;;;;;13.40;99.90;;;;;;8363349;28;19909;-64